Challenge ACRHO

Le Jogging Des AS De Velaines - Celles (9.10 km)

samedi 8 février 2020

Vous pouvez trouver le classement original sur : http://www.acrho.org/
CHALLENGE ACRHO
LE JOGGING DES AS DE VELAINES - CELLES
Distance : 9.09 km
samedi 8 février 2020
 
place Nom Equipe Catég. Pl/Cat. temps temps/km Vitesse
1 LOQUET THOMAS ET CHIEVRES SE 1 00:30:15 03:20 18.03
2 VALLÉ KURT SPORTIES SE 2 00:31:16 03:26 17.44
3 DARQUENNE GUILLAUME JOGGING PLUS EH 1 00:31:20 03:27 17.41
4 DEMUYNCK EMMANUEL FC BECLERS SE 3 00:31:24 03:27 17.37
5 D HONDT KEVIN   SE 4 00:31:31 03:28 17.31
6 DE BELS ROMAIN AS ANZIN SE 5 00:31:51 03:30 17.12
7 VAN DEN BRULLE JO JC HERZELE V1 1 00:32:13 03:33 16.93
8 GILMET JULIEN COACH RUNNING SE 6 00:32:18 03:33 16.89
9 ROLET SYLVAIN FORMYFIT V1 2 00:32:30 03:35 16.78
10 RASSCHAERT EDDY POPUELLES DR... V2 1 00:32:46 03:36 16.65
11 DE MUNCK TANGUY TORTUES MESL... V1 3 00:33:02 03:38 16.51
12 BILLET GRÉGORY POPUELLES DR... V1 4 00:33:38 03:42 16.22
13 VOET FEDERIC AP3T SE 7 00:33:42 03:42 16.18
14 DILLIES PIERRE-ELOI POPUELLES DR... SE 8 00:33:42 03:42 16.18
15 BLANPAIN PAUL L'AS DE LA T... SE 9 00:33:49 03:43 16.13
16 VANDENBERGHE LOUIS POPUELLES DR... SE 10 00:33:53 03:44 16.10
17 VANDEMEULEBROUCKE YVES AZW V1 5 00:34:00 03:44 16.04
18 DELVA CHRISTIAN ACCROS 5 CLO... V1 6 00:34:02 03:45 16.03
19 VIFQUIN CHRISTOPHE JC HERINNES V1 7 00:34:23 03:47 15.86
20 LEMOINE SAMUEL CAP TEAM V1 8 00:34:51 03:50 15.65
21 HELIN FRANCOIS DOUR SPORTS SE 11 00:35:01 03:51 15.58
22 MESTAG BENOIT PIPAIX SE 12 00:35:03 03:51 15.56
23 VANCOMPERNOLLE BENOIT   SE 13 00:35:08 03:52 15.52
24 HAEGEMAN GEERT   V2 2 00:35:12 03:52 15.49
25 STOCMAN YANNICK CAP TEAM V1 9 00:35:15 03:53 15.47
26 VANWALLEGHEM CHARLOTTE   DA 1 00:35:22 03:53 15.42
27 DESMET BJÖRN JCSA V1 10 00:35:30 03:54 15.36
28 DEQUIN FRÉDÉRIC POPUELLES DR... V1 11 00:35:32 03:55 15.35
29 SALOMEZ FRÉDÉRIK MMM V1 12 00:35:32 03:55 15.35
30 MALRAIT GERRY ADDM OGY V2 3 00:35:35 03:55 15.33
31 DELABIE KÉVIN AG INSURANCE... SE 14 00:35:38 03:55 15.31
32 CHIVORET PASCAL SPORT EVASION SE 15 00:35:38 03:55 15.31
33 VAN NESTÉ MICHEL TEAM RUNNING 46 SE 16 00:35:45 03:56 15.26
34 HOORNAERT TOM TCT V2 4 00:35:54 03:57 15.19
35 FOURDIN VINCENT KERVASSIN SE 17 00:35:59 03:58 15.16
36 CABO THIBAUT HAVIGNOBLE SE 18 00:36:02 03:58 15.14
37 MESSIAEN XAVIER BAC V2 5 00:36:02 03:58 15.14
38 DECOCQ JACQUES-ANTOINE ETM SE 19 00:36:15 03:59 15.05
39 WISEUR ALEXIS ET CHIEVRES SE 20 00:36:21 04:00 15.00
40 SAUSSEZ JÉRÔME   SE 21 00:36:29 04:01 14.95
41 HOUREZ DYLAN JC BLANDAIN SE 22 00:36:37 04:02 14.90
42 SOTTIAUX SÉBASTIEN FARMERS CLUB V1 13 00:36:42 04:02 14.86
43 TAECKENS JENS DE PELIKAANR... SE 23 00:36:46 04:03 14.83
44 LETELLIER ANTHONY   SE 24 00:36:46 04:03 14.83
45 BOUCART JEREMIE   SE 25 00:36:59 04:04 14.75
46 ALLARD FRANÇOIS COACH RUNNING SE 26 00:37:05 04:05 14.71
47 HAJDU VALENTIN SMARTH-L-COA... SE 27 00:37:07 04:05 14.69
48 HACHE FABIEN   SE 28 00:37:15 04:06 14.64
49 DIERYCK PASCAL   V2 6 00:37:18 04:06 14.62
50 NAUW PIERRE ATHOIS DE CO... SE 29 00:37:19 04:06 14.62
51 VAN BREUSEGEM DOUWE   SE 30 00:37:19 04:06 14.62
52 DE POORTER SAMUEL ROCCO TEAM V1 14 00:37:22 04:07 14.60
53 LEBAILLY GRÉGORY PIPAIX SE 31 00:37:23 04:07 14.59
54 AMORISON ANDY   SE 32 00:37:25 04:07 14.58
55 PIERAERT KEVIN ATHOIS DE CO... SE 33 00:37:34 04:08 14.52
56 DEBOUVRIE ELIAN ACBB EH 2 00:37:41 04:09 14.47
57 JOURET AMAURY   SE 34 00:37:46 04:09 14.44
58 WAUQUIEZ XAVIER   V1 15 00:37:50 04:10 14.42
59 DESCARPENTRIES FABRICE RUNNING SAFE V2 7 00:37:55 04:10 14.38
60 DUJARDIN VIRGINIE LES NOIX DE ... A1 1 00:37:58 04:11 14.37
61 GUIZARD OLIVIER   V2 8 00:38:00 04:11 14.35
62 DEGRYSE QUENTIN RUNNINGGEEK SE 35 00:38:10 04:12 14.29
63 RENARD ALBERT PIPAIX SE 36 00:38:13 04:12 14.27
64 DECOURTY THIBAUT   V1 16 00:38:16 04:13 14.25
65 GOBERT JÉRÔME PIPAIX SE 37 00:38:18 04:13 14.24
66 FLAMME KÉVIN RUNNING SAFE SE 38 00:38:19 04:13 14.23
67 BOULANGER JULIEN KERVASSIN SE 39 00:38:19 04:13 14.23
68 STORME RÉMY SPORT EVASION SE 40 00:38:19 04:13 14.23
69 STOCLET FABIAN   SE 41 00:38:20 04:13 14.23
70 DEWITTE JOHN   SE 42 00:38:27 04:14 14.18
71 POURTOIS GILLES ADDM OGY V1 17 00:38:30 04:14 14.17
72 DELMEULE MICHEL PIPAIX V2 9 00:38:34 04:15 14.14
73 DELMAIRE FREDERIK ADDM OGY SE 43 00:38:39 04:15 14.11
74 MAS BRUNO PIPAIX V2 10 00:38:42 04:15 14.09
75 PIERAERT GUY ATHOIS DE CO... V2 11 00:38:46 04:16 14.07
76 DERONNE MATHIEU SPORT EVASION V1 18 00:38:48 04:16 14.06
77 MASELIS JOHNNY   V1 19 00:38:48 04:16 14.06
78 TANCRE DIMITRI   SE 44 00:38:49 04:16 14.05
79 LAMONT MICHAEL ADDM OGY V1 20 00:38:49 04:16 14.05
80 MICHEL BRUNO RUSTA V1 21 00:38:54 04:17 14.02
81 DEROISSART PHILIPPE POPUELLES DR... V1 22 00:38:56 04:17 14.01
82 DESEYN CARLINE A.V.M.O. A2 1 00:38:57 04:17 14.00
83 VAN DRIESSCHE DAMIEN VELAINES V1 23 00:38:59 04:17 13.99
84 BAUDOUIN SAMUEL   SE 45 00:39:02 04:18 13.97
85 HERNOULD FRANKY CAP TEAM SE 46 00:39:07 04:18 13.94
86 BOSQUILLON QUENTIN ATHOIS DE CO... V1 24 00:39:14 04:19 13.90
87 THIELEMANS SÉBASTIEN POTES O MALTES SE 47 00:39:14 04:19 13.90
88 LAMON PETER   V1 25 00:39:17 04:19 13.88
89 CUVELIER GILLES TORTUES MESL... SE 48 00:39:21 04:20 13.86
90 MOULIN RÉMY HAVIGNOBLE SE 49 00:39:21 04:20 13.86
91 VAN CEUNEBROECK MICHEL LES CEUSSES ... V2 12 00:39:23 04:20 13.85
92 RONDELAERE TOM CRAZY WHEELS V1 26 00:39:25 04:20 13.84
93 CHERLET TINEKE TCT A1 2 00:39:27 04:20 13.83
94 DEDRYVER FABIEN   SE 50 00:39:27 04:20 13.83
95 DELBROECK QUENTIN   SE 51 00:39:29 04:21 13.81
96 MULLIEZ REMY CAP TEAM SE 52 00:39:36 04:21 13.77
97 SOLDAI PATRICK   V3 1 00:39:37 04:21 13.77
98 VAN NIEUWENHUIZE WIM KASVO V1 27 00:39:37 04:21 13.77
99 SCOHIEZ BERNARD PIPAIX V2 13 00:39:41 04:22 13.74
100 PETIT SIMON RC ESTAIMPUIS V1 28 00:39:45 04:22 13.72
101 BRICHAUT OLIVIER RUN & SMASH V1 29 00:39:48 04:23 13.70
102 ALLAERT ANTHIME TORTUES MESL... V1 30 00:39:51 04:23 13.69
103 OPSOMER BRUNO POTES O MALTES V1 31 00:39:51 04:23 13.69
104 BEVERNAEGIE CHRIS LES ECLATES ... V1 32 00:39:54 04:23 13.67
105 FOUQUETTE SÉBASTIEN ADDM OGY V1 33 00:39:55 04:23 13.66
106 VERMEERSCH KOEN VACBL V1 34 00:39:56 04:24 13.66
107 ARESU FABIAN   V1 35 00:39:58 04:24 13.65
108 VANDAELE LODE   V2 14 00:39:58 04:24 13.65
109 VILLANI ANTONIO   V1 36 00:40:00 04:24 13.64
110 DECONINCK AURELIEN   SE 53 00:40:05 04:25 13.61
111 FLAMMIA FRANCOIS CAP TEAM SE 54 00:40:06 04:25 13.60
112 DERYCKE ANTHONY CAP TEAM SE 55 00:40:07 04:25 13.60
113 GEETS CÉDRIC   V1 37 00:40:08 04:25 13.59
114 MARTIN GUILLAUME   SE 56 00:40:09 04:25 13.58
115 VAN DEN BRULLE VEERLE   A1 3 00:40:11 04:25 13.57
116 DE SAINT MARTIN ALAIN FARMERS CLUB SE 57 00:40:11 04:25 13.57
117 DEPOORTERE YVES   SE 58 00:40:12 04:25 13.57
118 MAHIEU FRÉDÉRIC COACH RUNNING V1 38 00:40:14 04:26 13.56
119 CAMBERLIN LAURENT POPUELLES DR... V1 39 00:40:16 04:26 13.54
120 MASELIS PASCAL COACH RUNNING V1 40 00:40:17 04:26 13.54
121 LAEBENS FRANÇOIS RC ESTAIMPUIS SE 59 00:40:21 04:26 13.52
122 DERYCKE VINCENT RC ESTAIMPUIS V2 15 00:40:26 04:27 13.49
123 REYBROECK ALEXANDRE TEAM RUNNING 46 SE 60 00:40:26 04:27 13.49
124 SANTY RUDY COACH RUNNING V2 16 00:40:28 04:27 13.48
125 DELCOURT JUAN ECLATES PERU... SE 61 00:40:33 04:28 13.45
126 JOURET JULIEN B BETES DE C... V1 41 00:40:34 04:28 13.44
127 CARPENTIER JULIEN SPORT EVASION SE 62 00:40:35 04:28 13.44
128 MOUTIEZ CÉCILE ATHOIS DE CO... A2 2 00:40:36 04:28 13.43
129 BLAUBLOMME LUDOVIC   V1 42 00:40:36 04:28 13.43
130 DECORDIER HENRI   SE 63 00:40:37 04:28 13.43
131 LEMOINE FABIAN SMARTH-L-COA... SE 64 00:40:39 04:28 13.42
132 MARGINET OLIVIER JC HERINNES V2 17 00:40:39 04:28 13.42
133 DELHAYE LAURENT KERVASSIN SE 65 00:40:41 04:29 13.41
134 LEQUEUE CAMILLE TURBO DA 2 00:40:43 04:29 13.40
135 WESTERLINCK STEFAAN DE DARTELE D... V1 43 00:40:46 04:29 13.38
136 BARREZ FRANCIS LES CEUSSES ... V3 2 00:40:46 04:29 13.38
137 DESMONS RICHARD   V1 44 00:40:49 04:29 13.36
138 BOUCAU WILLIAM   V2 18 00:40:49 04:29 13.36
139 DERREUMAUX DAVID RUNNING SAFE V1 45 00:40:58 04:30 13.31
140 SNP SID-ALI JC BLANDAIN V1 46 00:41:00 04:31 13.30
141 VERSTRAETE VINCENT   V1 47 00:41:03 04:31 13.29
142 BOUVRY JEAN-MICHEL VELAINES V1 48 00:41:11 04:32 13.24
143 HENRIST LUDOVIC   SE 66 00:41:12 04:32 13.24
144 LOISELET LAURENT   SE 67 00:41:12 04:32 13.24
145 KADDOUR MEHDY   SE 68 00:41:14 04:32 13.23
146 MASELIS RUDI COACH RUNNING V1 49 00:41:14 04:32 13.23
147 SAUDEMONT FRÉDÉRIC KERVASSIN V2 19 00:41:16 04:32 13.22
148 LECLERCQ EDDY KAIN B V3 3 00:41:20 04:33 13.20
149 PLASMAN ALEXANDRE   V1 50 00:41:25 04:33 13.17
150 TASKIN KENAN RUNNING SAFE SE 69 00:41:25 04:33 13.17
151 BRALION CÉDRIC   V1 51 00:41:26 04:33 13.16
152 DUHEM JONATHAN BAC SE 70 00:41:28 04:34 13.15
153 COLMANT ALEXANDRE   SE 71 00:41:31 04:34 13.14
154 PATIN SERGE COACH RUNNING V2 20 00:41:34 04:34 13.12
155 VANHAEBOST GEORGES FLOC V2 21 00:41:34 04:34 13.12
156 VANDEPUTTE CHRISTOPHE JC HERINNES V1 52 00:41:35 04:34 13.12
157 MDAGURI ALAOUI ISMAËL JUPITEAM V1 53 00:41:36 04:35 13.11
158 PIERRE OPHÉLIE   DA 3 00:41:39 04:35 13.10
159 MAILLY ALBERT   SE 72 00:41:39 04:35 13.10
160 MALLOUDI KARIM RC ESTAIMPUIS V1 54 00:41:43 04:35 13.07
161 MARTIN FRANÇOIS   V1 55 00:41:46 04:36 13.06
162 ROZMANOWSKI CEDRIC   V1 56 00:41:49 04:36 13.04
163 CLERX VINCENT PIPAIX V2 22 00:41:50 04:36 13.04
164 DEWINTER JONATHAN   SE 73 00:41:50 04:36 13.04
165 MOULIN BAPTISTE RUNNING SAFE SE 74 00:41:51 04:36 13.03
166 LENEZ MATHIEU KAIN B V1 57 00:41:51 04:36 13.03
167 DECLERCQ THOMAS   SE 75 00:41:51 04:36 13.03
168 GRULOIS SAMUËL JUDO TOP NIVEAU V1 58 00:41:51 04:36 13.03
169 DEWAELE JÉRÉMY JET 7 BIKERS SE 76 00:41:52 04:36 13.03
170 DEPRETZ FRÉDÉRIC TEAM RUNNING 46 V1 59 00:41:52 04:36 13.03
171 HERREMAN HÉLÉNE TEMPLEUVE DA 4 00:41:52 04:36 13.03
172 VERHAEGH DIMITRI RC ESTAIMPUIS SE 77 00:41:52 04:36 13.03
173 DE MEESTER BRADELEY   SE 78 00:41:52 04:36 13.03
174 MERLO VALENTIN   SE 79 00:41:54 04:37 13.02
175 TROP TAAAAAAAAARD 4   SE 80 00:41:55 04:37 13.01
176 DE CUBBER MARC BAC V3 4 00:41:56 04:37 13.01
177 MALVOISIN FLORIAN   V1 60 00:41:59 04:37 12.99
178 NIEUWLAND JEAN-FRANÇOIS LES CHAPELIE... V1 61 00:41:59 04:37 12.99
179 SAUSSEZ JULIEN   SE 81 00:42:00 04:37 12.99
180 MATTHYS PASCAL VELAINES V1 62 00:42:01 04:37 12.98
181 VANDENBULCKE ARNAUD RC ESTAIMPUIS V1 63 00:42:02 04:37 12.98
182 LIPPENS ALAIN AS RIEME V2 23 00:42:03 04:38 12.97
183 DEWAELLE MICHEL RC ESTAIMPUIS V2 24 00:42:08 04:38 12.94
184 PIROTTE JARNO JCSA SE 82 00:42:10 04:38 12.93
185 DELCOURT FLORENCE LES ECLATES ... A2 3 00:42:11 04:38 12.93
186 MORLEGHEM STÉPHANE ATHOIS DE CO... V2 25 00:42:12 04:39 12.92
187 DIRICQ GWENAELLE AC ST SAUVEU... A1 4 00:42:13 04:39 12.92
188 DEGELS DAVID BAD BOYS V1 64 00:42:13 04:39 12.92
189 SPANNEUT SÉBASTIEN MONTS ET COL... V1 65 00:42:13 04:39 12.92
190 PETIT JULIEN   SE 83 00:42:15 04:39 12.91
191 VAN DEN HAUTE HERMAN ADDM OGY V4 1 00:42:16 04:39 12.90
192 DEPLUVEREZ PAUL ADDM OGY V3 5 00:42:17 04:39 12.90
193 DILLIES BERNARD FARMERS CLUB V2 26 00:42:18 04:39 12.89
194 BALCAEN PHILIPPE   V2 27 00:42:26 04:40 12.85
195 ROZEL GAUTHIER SUKCESTFOU V1 66 00:42:28 04:40 12.84
196 SPRIET FRÉDÉRIC   V1 67 00:42:28 04:40 12.84
197 MAHIEU LAURENT COACH RUNNING V1 68 00:42:28 04:40 12.84
198 VERVACKE CHRISTOPHE VELAINES V2 28 00:42:29 04:40 12.84
199 OBSOMER ANDRÉ VELAINES V3 6 00:42:30 04:41 12.83
200 ROZEL NATHAN SUKCESTFOU EH 3 00:42:31 04:41 12.83
201 PETIT MAXIME   SE 84 00:42:33 04:41 12.82
202 BAUTS YVES RC ESTAIMPUIS V3 7 00:42:33 04:41 12.82
203 DUJARDIN AUXANNE LES NOIX DE ... ED 1 00:42:37 04:41 12.80
204 BARA KEVIN MMM SE 85 00:42:38 04:41 12.79
205 RUSSE DAMIEN MMM V1 69 00:42:38 04:41 12.79
206 DE STOMMELEIR HUGUES   V2 29 00:42:41 04:42 12.78
207 DELHALLE XAVIER ANDRES TEAM SE 86 00:42:43 04:42 12.77
208 DEMARET CHRISTOPHE TORTUES MESL... V1 70 00:42:47 04:42 12.75
209 RYCKAERT ALAIN TORTUES MESL... V2 30 00:42:48 04:43 12.74
210 SNOECK FELIPE VELAINES V1 71 00:42:51 04:43 12.73
211 NUTTIN SÉBASTIEN   SE 87 00:42:52 04:43 12.72
212 DECANDT FREDDY GRIJSLOKE V3 8 00:42:56 04:43 12.70
213 DUJARDIN CATHERINE LES NOIX DE ... DA 5 00:42:56 04:43 12.70
214 ROCHEZ SÉBASTIEN ACCROS 5 CLO... V1 72 00:43:00 04:44 12.68
215 DUQUENNE MICHEL JCSA V3 9 00:43:00 04:44 12.68
216 DUFOUR DIMITRI TEMPLEUVE SE 88 00:43:00 04:44 12.68
217 MAHIEU GILLES COACH RUNNING EH 4 00:43:01 04:44 12.68
218 CONIL NICOLAS TEMPLEUVE SE 89 00:43:01 04:44 12.68
219 BILLIET FABRICE AC ST SAUVEU... V2 31 00:43:01 04:44 12.68
220 KARGAR SAMANI KHALIL CAP TEAM V2 32 00:43:02 04:44 12.67
221 WINAND ALEXANDRE   SE 90 00:43:04 04:44 12.66
222 POLO ROMERO RODRIGUE   V1 73 00:43:10 04:45 12.63
223 SAVARY HUGO FARMERS CLUB V1 74 00:43:10 04:45 12.63
224 DEWAELE STEVEN RFC MOLENBAIX SE 91 00:43:15 04:45 12.61
225 LECLERCQ GAETAN   SE 92 00:43:16 04:46 12.61
226 ALLARD QUENTIN FOULÉE DU CŒUR SE 93 00:43:17 04:46 12.60
227 LEGRAND FREDERIC POTES O MALTES V1 75 00:43:18 04:46 12.60
228 TRUANT PHILIP WWW.RUNAISSA... SE 94 00:43:20 04:46 12.59
229 LAGAEYSSE HANS   V2 33 00:43:23 04:46 12.57
230 ABRAHAM STEVE POTES O MALTES V1 76 00:43:32 04:47 12.53
231 ABRAHAM JORDAN POTES O MALTES SE 95 00:43:33 04:47 12.52
232 SEGHERS DAMIEN ATHOIS DE CO... SE 96 00:43:37 04:48 12.50
233 GIANNONE ALDO TEMPLEUVE V1 77 00:43:40 04:48 12.49
234 TEMPERMAN GAËTAN AMIS DU MARDI V1 78 00:43:40 04:48 12.49
235 DE LANGHE GILLES LES GENS D ERE SE 97 00:43:41 04:48 12.49
236 MORIAU THOMAS   EH 5 00:43:42 04:48 12.48
237 LECHANTRE SYLVETTE RC ESTAIMPUIS A2 4 00:43:42 04:48 12.48
238 GLORIEUX PIERRE VELAINES V1 79 00:43:43 04:49 12.48
239 DEVOS SIMON   EH 6 00:43:44 04:49 12.47
240 LABITTE PHILIPPE MMM V2 34 00:43:46 04:49 12.46
241 DEROUBAIX DAVID   SE 98 00:43:47 04:49 12.46
242 MASAI CHRISTIAN KAIN B V3 10 00:43:50 04:49 12.44
243 FICHERE SYLVAIN RC ESTAIMPUIS V2 35 00:43:51 04:49 12.44
244 GOSSART BASTIEN   SE 99 00:43:53 04:50 12.43
245 BROCART CHARLES JUDO CLUB SA... V1 80 00:43:56 04:50 12.41
246 DAYE FRANCIS   V3 11 00:44:01 04:51 12.39
247 BACRO ANTOINE COACH RUNNING SE 100 00:44:01 04:51 12.39
248 VAN GLABEKE YOURI KAIN B V1 81 00:44:02 04:51 12.39
249 DERVAUX GAËTAN PIPAIX V1 82 00:44:03 04:51 12.38
250 AUDI JULIE JC HERINNES DA 6 00:44:03 04:51 12.38
251 DERYCKER PIERRE-YVES   SE 101 00:44:04 04:51 12.38
252 VAN DEN BRULLE ROLAND JC ERWETEGEM V4 2 00:44:06 04:51 12.37
253 THOREZ JOHAN   SE 102 00:44:07 04:51 12.36
254 BOGEMANS SÉBASTIEN JC HERINNES SE 103 00:44:07 04:51 12.36
255 SOYEZ LUCILE APERUNNERS DA 7 00:44:10 04:52 12.35
256 VANSLEMBROUCK HUBERT CAP TEAM V1 83 00:44:13 04:52 12.33
257 JANDREZ EDOUARD MC RUNNING SE 104 00:44:14 04:52 12.33
258 HERNOULD FRANZ CAP TEAM V3 12 00:44:15 04:52 12.33
259 SIMONART CHRISTOPHE   SE 105 00:44:15 04:52 12.33
260 LEGAS MAXIME CROSSTRAININ... SE 106 00:44:19 04:53 12.31
261 ROGGE JOHAN   V4 3 00:44:19 04:53 12.31
262 DE BRUYN DAVID   V1 84 00:44:19 04:53 12.31
263 VERDY JACQUES KAIN B V3 13 00:44:21 04:53 12.30
264 VAN MALLEGHEM ARIANE KAIN B A2 5 00:44:30 04:54 12.26
265 DHONDT GIL PIPAIX SE 107 00:44:32 04:54 12.25
266 VANOVERSKELDS DOMINIQUE   V2 36 00:44:32 04:54 12.25
267 MULNARD DAMIEN   SE 108 00:44:33 04:54 12.24
268 DUMORTIER THOMAS   SE 109 00:44:34 04:54 12.24
269 LIETARD LAURENT ATHOIS DE CO... V1 85 00:44:39 04:55 12.22
270 ESCALIER BERTRAND   V2 37 00:44:39 04:55 12.22
271 CARDON FABRICE   V2 38 00:44:39 04:55 12.22
272 DUBOIS THIBAUT RUN & SMASH V1 86 00:44:40 04:55 12.21
273 LECOCQ PIERRE CAP TEAM V3 14 00:44:43 04:55 12.20
274 STOCMAN THIBO CAP TEAM EH 7 00:44:44 04:55 12.19
275 GRIMONPREZ FRANÇOIS   SE 110 00:44:45 04:55 12.19
276 CORYN STÉPHANE   V2 39 00:44:49 04:56 12.17
277 CORNU GAËTAN KAIN B V2 40 00:44:52 04:56 12.16
278 VERZELE MAXIME KAIN B SE 111 00:44:56 04:57 12.14
279 PICRON OLIVIER PIPAIX V2 41 00:45:00 04:57 12.12
280 BRALION LOUIS ATH ATHLETISME EH 8 00:45:02 04:57 12.11
281 LEQUENNE FRANÇOIS   SE 112 00:45:03 04:57 12.11
282 MARGINET LAURENT   V2 42 00:45:03 04:57 12.11
283 FROISSART FABRICE SPHO V2 43 00:45:04 04:57 12.10
284 KENSIER GUILLAUME SPHO V1 87 00:45:06 04:58 12.09
285 DEBOSSCKER FRANÇOIS JCPMF PECQ V1 88 00:45:12 04:58 12.07
286 DUFOUR PHILIPPE VELAINES V2 44 00:45:12 04:58 12.07
287 GILLEMAN PIERRE KAIN B V2 45 00:45:14 04:59 12.06
288 LEROY PASCAL JC BECLERS V2 46 00:45:16 04:59 12.05
289 HENNEUSE FRANÇOIS   SE 113 00:45:16 04:59 12.05
290 CRAPEZ LORY TORTUES MESL... V1 89 00:45:17 04:59 12.04
291 QUINTILI LAURENT RUNNING SAFE V1 90 00:45:17 04:59 12.04
292 DE SMET ALEXANDRINE TORTUES MESL... A1 5 00:45:17 04:59 12.04
293 BEUDIN PATRICK VELAINES V3 15 00:45:28 05:00 12.00
294 BOUZIANE WANIS SERVICE SPOR... SE 114 00:45:28 05:00 12.00
295 DIRICQ PASCAL AC ST SAUVEU... V1 91 00:45:28 05:00 12.00
296 DUBOIS OLIVIER   V1 92 00:45:31 05:00 11.98
297 CASTERMAN THIERRY   V2 47 00:45:34 05:01 11.97
298 DEBAVAY JEAN-CHRISTOPHE PIPAIX V1 93 00:45:37 05:01 11.96
299 DURANT LUC RSCM V2 48 00:45:44 05:02 11.93
300 GRIVET DOMINIQUE C.T. ANTOING V1 94 00:45:46 05:02 11.92
301 PARENT LAURE   DA 8 00:45:46 05:02 11.92
302 CHAMART ISABELLE   A1 6 00:45:46 05:02 11.92
303 CUVELIER RÉMY ACCROS 5 CLO... SE 115 00:45:50 05:03 11.90
304 MESTDAGH VINCENT JC HERINNES V2 49 00:45:50 05:03 11.90
305 STILITE BERTRAND   V2 50 00:45:54 05:03 11.88
306 BORIGHEM DIDIER MC RUNNING V2 51 00:45:57 05:03 11.87
307 AMORISON DAVID KERVASSIN SE 116 00:45:58 05:03 11.87
308 DEBAISIEUX SERGE BAC V3 16 00:45:58 05:03 11.87
309 GRAVER RUDI VELAINES V2 52 00:45:59 05:04 11.86
310 VANTYGHEM AUDE   DA 9 00:45:59 05:04 11.86
311 JUCHTMANS PIERRE RMT V2 53 00:46:02 05:04 11.85
312 VAN WYNSBERGHE ANTOINE   SE 117 00:46:02 05:04 11.85
313 MAHIEU EDDY PIPAIX V2 54 00:46:02 05:04 11.85
314 BATAILLE MATTHIEU COACH RUNNING V1 95 00:46:04 05:04 11.84
315 DROOGMANS THOMAS ADDM OGY SE 118 00:46:06 05:04 11.83
316 BRAQUENIER BENOÎT B BETES DE C... V1 96 00:46:10 05:05 11.81
317 VERDEBOUT JEAN-MICHEL JC HERINNES V2 55 00:46:11 05:05 11.81
318 VANUS ERIC RUN 4 FUN V2 56 00:46:13 05:05 11.80
319 BRUNEAU CHANTAL PIPAIX A3 1 00:46:15 05:05 11.79
320 VANDERSCHUEREN GUY TOURNAI GENE... V2 57 00:46:16 05:05 11.79
321 STASSEN PIERRE TOURNAI GENE... V1 97 00:46:17 05:05 11.78
322 BEAURY CHRISTOPHE BAC V1 98 00:46:17 05:05 11.78
323 POOT LAURENT   V2 58 00:46:17 05:05 11.78
324 DELCAMPE MAXIME   V1 99 00:46:22 05:06 11.76
325 DOCQUIER VINCENT TEMPLEUVE V2 59 00:46:23 05:06 11.76
326 ZAOUIA SAID   SE 119 00:46:23 05:06 11.76
327 WEYTSMAN SÉBASTIEN VELAINES V1 100 00:46:23 05:06 11.76
328 DECRUYENAERE FRÉDÉRIC FARMERS CLUB V1 101 00:46:24 05:06 11.75
329 VAN HEE OLIVIER WWW.RUNAISSA... V2 60 00:46:26 05:06 11.75
330 MESSIAEN THOMAS RTC TOURNAI SE 120 00:46:26 05:06 11.75
331 VAUCANT ADRIEN FARMERS CLUB SE 121 00:46:29 05:07 11.73
332 DELMARRE PIERRE FARMERS CLUB V2 61 00:46:30 05:07 11.73
333 DERONNE SÉBASTIEN LES ECLATES V1 102 00:46:32 05:07 11.72
334 SEMAY DAEVID   V1 103 00:46:32 05:07 11.72
335 DELCROIX LUC FARMERS CLUB V2 62 00:46:38 05:08 11.70
336 DUHEM GÉRARD BAC V2 63 00:46:38 05:08 11.70
337 OUATLA FATIMA PRFM A1 7 00:46:39 05:08 11.69
338 LEMAITRE MICHEL JC HERINNES V2 64 00:46:41 05:08 11.68
339 DEVROEDE NORBERT POPUELLES DR... V3 17 00:46:41 05:08 11.68
340 COURTANT BENJAMIN POPUELLES DR... V1 104 00:46:42 05:08 11.68
341 TAHON PATRICE HAVIGNOBLE V2 65 00:46:42 05:08 11.68
342 VERHELST JEAN-MICHEL RUNNING SAFE SE 122 00:46:45 05:09 11.67
343 WILSSENS JULIE RUNNING SAFE DA 10 00:46:45 05:09 11.67
344 GHEKIERE PASCAL   V1 105 00:46:47 05:09 11.66
345 HENNEBICQ LAURENT PIPAIX V2 66 00:46:49 05:09 11.65
346 DIEZ ESTEBAN FARMERS CLUB V1 106 00:46:49 05:09 11.65
347 VANDENBULCKE RUBEN AG INSURANCE... SE 123 00:46:50 05:09 11.65
348 MAES THOMAS SPORT EVASION EH 9 00:46:52 05:09 11.64
349 VERMEERSCH OLIVIER JCL V1 107 00:46:53 05:09 11.63
350 MASSCHELEIN PATRICIA RC ESTAIMPUIS A1 8 00:46:55 05:10 11.63
351 FASTREZ CHRISTOPHE   V1 108 00:46:56 05:10 11.62
352 ANRYS GABRIEL JCSA V4 4 00:46:57 05:10 11.62
353 DELCOIGNE PIERRE VELAINES V1 109 00:46:59 05:10 11.61
354 HENNETON BENOIT COACH RUNNING SE 124 00:47:01 05:10 11.60
355 ROUSSEL QUENTIN COACH RUNNING V1 110 00:47:02 05:10 11.60
356 DEBEL JOSÉ   V3 18 00:47:05 05:11 11.58
357 MAHIEZ DAVID COACH RUNNING V2 67 00:47:06 05:11 11.58
358 BEEL DENNIS   V1 111 00:47:08 05:11 11.57
359 MAES ERIC SPORT EVASION V1 112 00:47:09 05:11 11.57
360 PAUWELS CORENTIN   SE 125 00:47:10 05:11 11.56
361 MOULRON MARINE   DA 11 00:47:11 05:11 11.56
362 HAELTERS BRUNO VELAINES V1 113 00:47:14 05:12 11.55
363 BROUSSE JEROME RC ESTAIMPUIS V1 114 00:47:15 05:12 11.54
364 LA HAISE OLIVIER JC BLANDAIN V2 68 00:47:17 05:12 11.53
365 ROCQUERELLE THOMAS   SE 126 00:47:18 05:12 11.53
366 DERVAUX JEAN-MICHEL PIPAIX V2 69 00:47:18 05:12 11.53
367 ROOSE LAURENT BAC V3 19 00:47:19 05:12 11.53
368 DE CUBBER JACQUES BAC V3 20 00:47:25 05:13 11.50
369 BATAILLE CLAUDE RC ESTAIMPUIS V4 5 00:47:28 05:13 11.49
370 DEJONGHE SEBASTIEN JC BLANDAIN V1 115 00:47:29 05:13 11.49
371 POULET DAVID HC MOUSCRON V1 116 00:47:29 05:13 11.49
372 DEVOS STEPHANIE JCPMF PECQ DA 12 00:47:30 05:14 11.48
373 DEBOUVRIE SÉBASTIEN   V1 117 00:47:31 05:14 11.48
374 LEMAIRE PIERRE   V1 118 00:47:31 05:14 11.48
375 FLIPPO ELISE RUN'IN CLUB DA 13 00:47:32 05:14 11.47
376 CAMBIER ETIENNE LES CHARTREUX SE 127 00:47:33 05:14 11.47
377 DEGUELDRE MURIELLE   A1 9 00:47:33 05:14 11.47
378 DUPONTHIEU ANGELIQUE   A1 10 00:47:34 05:14 11.47
379 BOURGI PATRICK B BETES DE C... V2 70 00:47:35 05:14 11.46
380 VANROBAYS DAMIEN   SE 128 00:47:36 05:14 11.46
381 MESSIEN SOPHIE TEMPLEUVE DA 14 00:47:36 05:14 11.46
382 BAEKELANDT DANY VELAINES V3 21 00:47:38 05:14 11.45
383 DEBAISIEUX KÉVIN   SE 129 00:47:38 05:14 11.45
384 SPILEERS MARIE HELENE RUNNING SAFE DA 15 00:47:39 05:15 11.45
385 MICHIELS ARNAUD   SE 130 00:47:39 05:15 11.45
386 DUBAR JEAN-YVES COACH RUNNING SE 131 00:47:40 05:15 11.44
387 DECONINCK CHRISTIAN KAIN B V3 22 00:47:41 05:15 11.44
388 DELANGRE AMÉLIE FARMERS CLUB A1 11 00:47:42 05:15 11.43
389 PLUQUET EDDY   V1 119 00:47:42 05:15 11.43
390 WAFWANA EMMANUEL LES GENS D ERE V1 120 00:47:42 05:15 11.43
391 DI LAURO MARTINO VELAINES V3 23 00:47:42 05:15 11.43
392 DAYE JEAN-ROBERT LES NOIX DE ... V3 24 00:47:43 05:15 11.43
393 CARPENTIER SÉVERINE   A1 12 00:47:47 05:15 11.41
394 DERVAUX PHILIPPE TEMPLEUVE V2 71 00:47:48 05:16 11.41
395 DE CRAENE JEAN-PHILIPPE   V1 121 00:47:48 05:16 11.41
396 BERNARD CÉCILE TEMPLEUVE A2 6 00:47:48 05:16 11.41
397 DELOBELLE BERNADETTE SPHO A2 7 00:47:49 05:16 11.41
398 COORNAERT FRÉDÉRIC RUNNING SAFE V1 122 00:47:50 05:16 11.40
399 HINNEKENS GUILLAUME   V1 123 00:47:51 05:16 11.40
400 DELBECQ ANTHONY   SE 132 00:47:51 05:16 11.40
401 BOULONNE THOMAS   SE 133 00:47:51 05:16 11.40
402 HOVINE CONSTANTIN FARMERS CLUB V2 72 00:47:51 05:16 11.40
403 DEPELCHIN ANNE MC RUNNING A1 13 00:47:53 05:16 11.39
404 BOURGOIS JULIE MC RUNNING A1 14 00:47:55 05:16 11.38
405 BONTE LAURENCE JCPMF PECQ A2 8 00:47:55 05:16 11.38
406 DELBECQ XAVIER JC BLANDAIN V4 6 00:47:56 05:16 11.38
407 STOCKMAN ANOUCHKA   A2 9 00:48:00 05:17 11.36
408 GOMREE ADRIEN   SE 134 00:48:00 05:17 11.36
409 WINAND JEAN-YVES   V1 124 00:48:00 05:17 11.36
410 JURQUIN CHRISTIAN LES CEUSSES ... V2 73 00:48:02 05:17 11.35
411 LEPOT XAVIER LES CEUSSES ... V2 74 00:48:07 05:18 11.34
412 ROUSSEL JULIEN   SE 135 00:48:08 05:18 11.33
413 DECUBBER THOMAS LES GENS D ERE SE 136 00:48:11 05:18 11.32
414 HUAUX SYLVIE FARMERS CLUB A1 15 00:48:11 05:18 11.32
415 LECUTIER LOLA   DA 16 00:48:13 05:18 11.31
416 NOIRET LOUIS   SE 137 00:48:13 05:18 11.31
417 DESLEE ERIC KAIN B V2 75 00:48:15 05:18 11.30
418 DERMAUT TOM WRC EH 10 00:48:16 05:19 11.30
419 RAMU ANNICK KAIN B A2 10 00:48:16 05:19 11.30
420 ROTY MICHEL KAIN B V4 7 00:48:18 05:19 11.29
421 BONTE EDGARD TOURNAI GENE... V1 125 00:48:18 05:19 11.29
422 URBAIN JORDI   SE 138 00:48:19 05:19 11.29
423 WESTRADE BRUNO JC HERINNES V1 126 00:48:19 05:19 11.29
424 DE WERGIFOSSE ALICE   DA 17 00:48:21 05:19 11.28
425 JONVILLE ARMAND   V2 76 00:48:22 05:19 11.28
426 JACOBS MARC ET CHIEVRES V2 77 00:48:22 05:19 11.28
427 TESSE HUGUES   V2 78 00:48:22 05:19 11.28
428 VANDENBERG PETER ROBA RECREANTEN V1 127 00:48:24 05:19 11.27
429 REGNIER HUGO LES CHARTREUX SE 139 00:48:24 05:19 11.27
430 D HONT ROBERT VACBL V4 8 00:48:25 05:20 11.26
431 GHYSELINGS ALEXIS   SE 140 00:48:25 05:20 11.26
432 BUYSE FRÉDÉRIC   V1 128 00:48:25 05:20 11.26
433 DELCAMPE LAURE BAC DA 18 00:48:25 05:20 11.26
434 DELITTE GRÉGORY   SE 141 00:48:26 05:20 11.26
435 SARRAUT ERIC   V1 129 00:48:28 05:20 11.25
436 BRABANT NICOLAS BAC V1 130 00:48:29 05:20 11.25
437 BRABANT HUGO BAC EH 11 00:48:31 05:20 11.24
438 DUFRENNE CATHERINE   DA 19 00:48:31 05:20 11.24
439 GREGOIRE JOSEPHINE   DA 20 00:48:32 05:20 11.24
440 SARRAZIN BENOIT COACH RUNNING SE 142 00:48:33 05:20 11.23
441 ROUPIN KEVIN   SE 143 00:48:33 05:20 11.23
442 MESSIAEN BENOÎT RUNNING SAFE V1 131 00:48:33 05:20 11.23
443 DELHEZ ROMARIC KAIN B V1 132 00:48:34 05:21 11.23
444 DE ROUCK FRÉDÉRIC POTES O MALTES V1 133 00:48:35 05:21 11.23
445 VANHEYSTE JENNIFER ADDM OGY DA 21 00:48:38 05:21 11.21
446 PIRON GILLES RUNNING SAFE SE 144 00:48:39 05:21 11.21
447 NTAHONDEREYE ALEXANDRE LES CEUSSES ... SE 145 00:48:39 05:21 11.21
448 PREVOST MARIE CECILE TEMPLEUVE A1 16 00:48:39 05:21 11.21
449 DECORNET XAVIER KAIN B V2 79 00:48:39 05:21 11.21
450 ROCCARO GIUSEPPE RUNNING SAFE V2 80 00:48:39 05:21 11.21
451 GOEMAERE BART SUKCESTFOU V1 134 00:48:40 05:21 11.21
452 DUVEILLER LAURENCE   A1 17 00:48:41 05:21 11.20
453 CORNU PIERRE-JEAN JCSA V2 81 00:48:41 05:21 11.20
454 VANTYGHEM ALAIN   V3 25 00:48:43 05:22 11.20
455 OVENS JODIE   DA 22 00:48:43 05:22 11.20
456 DEGRANSART JOHAN B BETES DE C... V1 135 00:48:44 05:22 11.19
457 BOURGUIGNON FELIX VELAINES EH 12 00:48:46 05:22 11.18
458 CARBON JEAN-CHRISTOPHE TEMPLEUVE SE 146 00:48:47 05:22 11.18
459 BAEGHE GWENAËLLE   DA 23 00:48:48 05:22 11.18
460 DEHON THOMAS   SE 147 00:48:48 05:22 11.18
461 SACCHETTO ANTON USTA SE 148 00:48:49 05:22 11.17
462 DELCAMPE EDDY JC BECLERS V2 82 00:48:51 05:22 11.16
463 MERCIER PASCAL KAIN B V3 26 00:48:51 05:22 11.16
464 DESMET YVES JCSA V3 27 00:48:53 05:23 11.16
465 SCHOONOOGHE ERWIN VELAINES V2 83 00:48:53 05:23 11.16
466 CONTAN RÉMI   SE 149 00:48:55 05:23 11.15
467 APPELMANS JORN ADDM OGY SE 150 00:48:57 05:23 11.14
468 CLINQUART JEAN-CHRISTOPHE ROAD RUNNING... V1 136 00:48:58 05:23 11.14
469 GHYSELINGS FÉLICIEN VIVE LE ROI ... SE 151 00:49:00 05:23 11.13
470 GHYSELINGS VALENTIN   SE 152 00:49:00 05:23 11.13
471 WEYTSMAN CÉLINE TEMPLEUVE DA 24 00:49:00 05:23 11.13
472 MESTDAGH PASCAL RC ESTAIMPUIS V2 84 00:49:01 05:24 11.13
473 DI SIPIO CIRO RUNNING FRIENDS V1 137 00:49:01 05:24 11.13
474 LIBBRECHT MARIE ACBB DA 25 00:49:03 05:24 11.12
475 DEZEQUE DOMINIQUE JCSA V2 85 00:49:05 05:24 11.11
476 GEENENS BRUNO JC HERINNES V2 86 00:49:05 05:24 11.11
477 FAIGNARD VINCENT   SE 153 00:49:06 05:24 11.11
478 DENOOZ VIRGINIE   DA 26 00:49:06 05:24 11.11
479 DECOSTER GUILLAUME   SE 154 00:49:07 05:24 11.10
480 STAVAUX GAUVAIN   SE 155 00:49:07 05:24 11.10
481 GHELEYNS ODILE LES GENS D ERE DA 27 00:49:08 05:24 11.10
482 LUCAS PHILIPPE TEMPLEUVE V3 28 00:49:10 05:25 11.09
483 BOURGUIGNON CHRISTOPHE VELAINES V1 138 00:49:10 05:25 11.09
484 RYCKEBOSCH LUDWIG B BETES DE C... V2 87 00:49:11 05:25 11.09
485 LELEUX CHRISTOPHE WWW.RUNAISSA... SE 156 00:49:12 05:25 11.09
486 VANDENDYCK VANESSA   A1 18 00:49:14 05:25 11.08
487 BOHEMS ANDRÉ ACCROS 5 CLO... V2 88 00:49:15 05:25 11.07
488 ALLARD THIERRY ACCROS 5 CLO... V2 89 00:49:18 05:25 11.06
489 DELFOSSE MARIE ACCROS 5 CLO... DA 28 00:49:18 05:25 11.06
490 DE LOVINFOSSE NOEMIE RUN 4 FUN DA 29 00:49:19 05:26 11.06
491 DUPONT ETHEL ACCROS 5 CLO... A1 19 00:49:19 05:26 11.06
492 DELHAYE JEAN JACQUES   V1 139 00:49:26 05:26 11.03
493 LECONTE BRIGITTE SPHO A3 2 00:49:26 05:26 11.03
494 LELEU CAROLINE MC RUNNING DA 30 00:49:26 05:26 11.03
495 MOULIN JUSTINE   DA 31 00:49:28 05:27 11.03
496 VANTYGHEM SOPHIE   DA 32 00:49:32 05:27 11.01
497 ROMAN KRIS ADDM OGY SE 157 00:49:32 05:27 11.01
498 PONCHAU JEAN-PAUL TEMPLEUVE V4 9 00:49:34 05:27 11.00
499 DESMONT CATHERINE ATHOIS DE CO... A1 20 00:49:34 05:27 11.00
500 DEGRANDE CHRISTOPHE MMM V2 90 00:49:35 05:27 11.00
501 DELOBELLE CHANTAL SPHO A2 11 00:49:35 05:27 11.00
502 SALOME AURELIE ACBB DA 33 00:49:36 05:27 11.00
503 DERVAUX JEAN-PAUL   V3 29 00:49:36 05:27 11.00
504 CARTON ROMAIN   SE 158 00:49:36 05:27 11.00
505 FRENOY FREDERIQUE   A1 21 00:49:40 05:28 10.98
506 ICITEGETSE VICTOR   SE 159 00:49:40 05:28 10.98
507 BEQUET YANNICK FARMERS CLUB A2 12 00:49:41 05:28 10.98
508 VAN NESTE CAROLINE B BETES DE C... DA 34 00:49:41 05:28 10.98
509 LIEVROUW DIDIER   V2 91 00:49:44 05:28 10.97
510 MAHIEU DAVID COACH RUNNING V1 140 00:49:47 05:29 10.96
511 WANNEZ STEPHANIE B BETES DE C... A1 22 00:49:49 05:29 10.95
512 GERARD JULIEN   SE 160 00:49:49 05:29 10.95
513 DEREUX FRANCIS   V3 30 00:49:55 05:29 10.93
514 CALLENS JEAN-GONZAGUE   V2 92 00:50:00 05:30 10.91
515 LENGLE ANGELIQUE   A1 23 00:50:02 05:30 10.90
516 OTTEVAERE CHRISTOPHE LES GENS D ERE V2 93 00:50:02 05:30 10.90
517 LECLERCQ ANNE LES GENS D ERE A1 24 00:50:04 05:30 10.89
518 LAMBRECHT FREDERIC COACH RUNNING V2 94 00:50:07 05:31 10.88
519 SAQOUT IKBAL   V1 141 00:50:07 05:31 10.88
520 RONDIA AMAURY   V1 142 00:50:09 05:31 10.88
521 LEROY PHILIPPE PIPAIX V2 95 00:50:11 05:31 10.87
522 DE CLERCQ MARION FARMERS CLUB DA 35 00:50:14 05:32 10.86
523 VANNIEUWENHUYSE FRANÇOISE MMM A1 25 00:50:15 05:32 10.85
524 DEKEYZER TIFFANY   ED 2 00:50:15 05:32 10.85
525 DANEL VALENTIN   SE 161 00:50:17 05:32 10.85
526 TERRASSE JOCELYNE   A2 13 00:50:17 05:32 10.85
527 PLATTEEUW TANIA B BETES DE C... A1 26 00:50:18 05:32 10.84
528 DUPREZ FABIEN   V1 143 00:50:20 05:32 10.84
529 MOULIN ANNE B BETES DE C... A1 27 00:50:20 05:32 10.84
530 VANDENDORPE JAMES   V1 144 00:50:21 05:32 10.83
531 BEKAERT CHRISTOPHE TEMPLEUVE V1 145 00:50:22 05:32 10.83
532 CASTIAUX ESTEBAN   EH 13 00:50:22 05:32 10.83
533 OFFROY DAVID   V1 146 00:50:22 05:32 10.83
534 DURIEZ PIERRE ANDRES TEAM SE 162 00:50:24 05:33 10.82
535 SLIMANI PEGGY RUNNING SAFE A1 28 00:50:29 05:33 10.80
536 BRAL SÉVERINE MONTS ET COL... A1 29 00:50:29 05:33 10.80
537 LONGEPEE PHILIPPE   V2 96 00:50:31 05:33 10.80
538 BOSSUYT ANNE-MARIE   A2 14 00:50:32 05:34 10.79
539 BECK JACQUES LESDAIN D LA... V2 97 00:50:32 05:34 10.79
540 VANDENBULCKE FRANCIS SPORT EVASION V3 31 00:50:33 05:34 10.79
541 DECLEVES PAUL-EMILE ADDM OGY V3 32 00:50:35 05:34 10.78
542 LEROY AUDREY JC HERINNES A1 30 00:50:36 05:34 10.78
543 QUINTIN PIERRE VELAINES V2 98 00:50:38 05:34 10.77
544 LEMAIRE PERRINE RC ESTAIMPUIS DA 36 00:50:39 05:34 10.77
545 WATTECAMPS FRÉDÉRICQ   V2 99 00:50:39 05:34 10.77
546 BALAND JOHAN FARMERS CLUB V1 147 00:50:40 05:34 10.76
547 DEVROEY VANESSA FARMERS CLUB A1 31 00:50:40 05:34 10.76
548 GÉRARD STÉPHANE ATT V3 33 00:50:42 05:35 10.76
549 VANDENBULCKE MELANIE SPORT EVASION DA 37 00:50:47 05:35 10.74
550 MOREAU CLAUDE MC RUNNING ERE V2 100 00:50:48 05:35 10.74
551 DETRAIN STÉPHANE   V1 148 00:50:51 05:36 10.73
552 LEVEQUE JONATHAN TEAM RUNNING 46 SE 163 00:50:51 05:36 10.73
553 VAN DEN BRULLE VINCENT LUC   V1 149 00:50:52 05:36 10.72
554 PELTIER EMILIE   DA 38 00:50:54 05:36 10.72
555 THIBAUT LOUIS RUN & SMASH SE 164 00:50:56 05:36 10.71
556 LIVEMONT OLIVIER ADDM OGY V1 150 00:50:56 05:36 10.71
557 SOYEZ VALÉRIE VELAINES DA 39 00:50:58 05:36 10.70
558 CAY FRÉDÉRIC   SE 165 00:50:58 05:36 10.70
559 DE MEESTER GERMAIN TOURPES V4 10 00:51:02 05:37 10.69
560 GILLOT JUSTIN   SE 166 00:51:03 05:37 10.68
561 DERMAUT LUC FARMERS CLUB V2 101 00:51:03 05:37 10.68
562 DUC ERIC JCSA V2 102 00:51:07 05:37 10.67
563 BRIEAU JULIE ET ENGHIEN DA 40 00:51:14 05:38 10.65
564 MINET JIMMY ET ENGHIEN SE 167 00:51:15 05:38 10.64
565 GLORIEUX STEPHANE VELAINES V1 151 00:51:15 05:38 10.64
566 DESMET GREGORY VELAINES V1 152 00:51:16 05:38 10.64
567 PIAT LESLIE JC BLANDAIN A1 32 00:51:16 05:38 10.64
568 FLAMME JEAN-MICHEL JCSA V3 34 00:51:16 05:38 10.64
569 SPRIJ SAMIR   SE 168 00:51:21 05:39 10.62
570 COLLIE MARIE-JO VELAINES A4 1 00:51:25 05:39 10.61
571 DUPONT VANESSA   DA 41 00:51:25 05:39 10.61
572 CHEVALIER CLAUDE VELAINES V3 35 00:51:26 05:39 10.60
573 MASSAERT ARIAN   SE 169 00:51:28 05:40 10.60
574 DEGALLAIX RÉGINALD   V1 153 00:51:28 05:40 10.60
575 BOONAERT MATHILDE JCPMF PECQ DA 42 00:51:30 05:40 10.59
576 LEPLAE JEAN-YVES FLOC V3 36 00:51:30 05:40 10.59
577 VAN DRIESSCHE HUGO VELAINES EH 14 00:51:31 05:40 10.59
578 HEMPTE SYLVIE VELAINES A2 15 00:51:32 05:40 10.58
579 OUHNINI ISMAIL   SE 170 00:51:33 05:40 10.58
580 DHAEYER MELANIE   DA 43 00:51:36 05:41 10.57
581 OSTYN FRÉDÉRIC   V1 154 00:51:40 05:41 10.56
582 BEQUET JEAN-MARC FARMERS CLUB V2 103 00:51:40 05:41 10.56
583 LEPOUTRE VINCENT SPORT EVASION V1 155 00:51:41 05:41 10.55
584 DROESBEKE DIRK   V1 156 00:51:42 05:41 10.55
585 FONTAINE LUC JCPMF PECQ V3 37 00:51:44 05:41 10.54
586 RENAUX NANCY VELAINES A1 33 00:51:45 05:42 10.54
587 DUBUISSON LAURE JCPMF PECQ DA 44 00:51:45 05:42 10.54
588 ANDRADE JONATHAN ANDRES TEAM SE 171 00:51:45 05:42 10.54
589 DE WERGIFOSSE MARION   DA 45 00:51:49 05:42 10.53
590 LECROCQ DAVID RUN 4 FUN V1 157 00:51:50 05:42 10.52
591 HENRY MICHEL JC HERINNES V2 104 00:51:51 05:42 10.52
592 CARREZ MYRIAM LES CEUSSES ... A1 34 00:51:52 05:42 10.52
593 DE CANCK MARCEL RUNNERS EVERGEM V4 11 00:51:52 05:42 10.52
594 VION STEVE   SE 172 00:51:53 05:42 10.51
595 GONTON DELPHINE VELAINES DA 46 00:51:55 05:43 10.51
596 ROOSE PRISCILLA   DA 47 00:51:57 05:43 10.50
597 TILLEUL CARINE ETC A1 35 00:51:59 05:43 10.49
598 JANSSENS LIDIA POTES O MALTES DA 48 00:52:00 05:43 10.49
599 COCU JEAN-LUC PRFM V3 38 00:52:03 05:44 10.48
600 VRYGHEM FLORENTINE ATHOIS DE CO... DA 49 00:52:05 05:44 10.47
601 POTTIEZ JEAN-MARC LES CEUSSES ... V3 39 00:52:06 05:44 10.47
602 VANDERSTRAETEM LAURENT   V1 158 00:52:06 05:44 10.47
603 PAPALIA BENEDETTO CONDORCET V1 159 00:52:06 05:44 10.47
604 VUILLEMIN QUENTIN CONDORCET SE 173 00:52:06 05:44 10.47
605 OBIN JÉRÉMY CONDORCET SE 174 00:52:07 05:44 10.47
606 MAGNIER CHARLES ANTOINE CONDORCET SE 175 00:52:07 05:44 10.47
607 THIERCELIN NICOLAS CONDORCET SE 176 00:52:07 05:44 10.47
608 SOETENS ARNO CONDORCET SE 177 00:52:07 05:44 10.47
609 VAN WYMEERSCH JULIEN CONDORCET SE 178 00:52:07 05:44 10.47
610 DECUBBER ISABELLE   A1 36 00:52:08 05:44 10.46
611 BREUSE MATHIEU NINJAS DU HA... SE 179 00:52:09 05:44 10.46
612 GRULOIS DOMINIQUE   V3 40 00:52:13 05:45 10.45
613 VANDER EECKEN FABRICE VELAINES V1 160 00:52:15 05:45 10.44
614 VANDENBROUCKE GINO JCL V2 105 00:52:17 05:45 10.43
615 LEFEVRE STÉPHANE   V2 106 00:52:18 05:45 10.43
616 VANDEPUTTE WILLY JC HERINNES V4 12 00:52:19 05:45 10.43
617 BERNARD KATTY ATHOIS DE CO... A1 37 00:52:20 05:45 10.42
618 BASTEN MICHAËL ATHOIS DE CO... V1 161 00:52:22 05:46 10.42
619 FROISSART DAVID TEAM RUNNING 46 V1 162 00:52:25 05:46 10.41
620 DELAUNOY JACQUES   V3 41 00:52:26 05:46 10.40
621 HENRY MATHIEU JC HERINNES SE 180 00:52:36 05:47 10.37
622 ASSOIGNONS CAMILLE   DA 50 00:52:39 05:48 10.36
623 TORTURA VANESSA   A1 38 00:52:40 05:48 10.36
624 DELCOIGNE GEORGES RUN 4 FUN V2 107 00:52:42 05:48 10.35
625 NORTIER DAVID SPORT EVASION V1 163 00:52:43 05:48 10.35
626 JAUPART VÉRONIQUE   A2 16 00:52:44 05:48 10.34
627 SCOHIEZ MELANIE PIPAIX DA 51 00:52:46 05:48 10.34
628 DESOUBRY JEAN-FRANCOIS RUNNING SAFE V1 164 00:52:47 05:48 10.33
629 DEPUYDT DOMINIQUE   V3 42 00:52:51 05:49 10.32
630 BORMS NATHALIE RUN 4 FUN A2 17 00:52:52 05:49 10.32
631 RENARD PASCAL JCL V2 108 00:52:52 05:49 10.32
632 LARHRIB SALIM   V1 165 00:52:53 05:49 10.31
633 FEYS LOUISE   DA 52 00:52:54 05:49 10.31
634 MICHEL JACQUES   V3 43 00:52:56 05:49 10.30
635 THAON JOSÉ SPHO V3 44 00:52:58 05:50 10.30
636 SIMONART DAVID   V1 166 00:53:07 05:51 10.27
637 VANCOPPENOLLE GUY   V3 45 00:53:08 05:51 10.26
638 DELLETTRE ANNE SPHO A2 18 00:53:12 05:51 10.25
639 PARENT SABINE   A1 39 00:53:14 05:51 10.25
640 VAN LEYNSEELE JEAN-JACQUES JC BLANDAIN V2 109 00:53:15 05:51 10.24
641 LEROY AUDE JC HERINNES A1 40 00:53:18 05:52 10.23
642 BILTRESSE MICHEL KAIN B V4 13 00:53:20 05:52 10.23
643 THAON MICHELLE ECLATES PERU... A3 3 00:53:22 05:52 10.22
644 MARTIN YVES KAIN B V3 46 00:53:28 05:53 10.20
645 MATHY TIFANY   DA 53 00:53:33 05:53 10.19
646 QUIVY PASCAL   V1 167 00:53:38 05:54 10.17
647 PETIT KATHY JC ZWALM A1 41 00:53:40 05:54 10.16
648 CARPENTIER JEAN-MICHEL JC HERINNES V2 110 00:53:46 05:55 10.14
649 GEURTS OLIVIER JC HERINNES V1 168 00:53:47 05:55 10.14
650 PIERQUIN SABINE JC HERINNES A2 19 00:53:48 05:55 10.14
651 DUBUISSON JULIE POPUELLES DR... DA 54 00:53:49 05:55 10.13
652 THIERY SABINE   A2 20 00:53:52 05:56 10.13
653 COLLIE ANNE LES CEUSSES ... A1 42 00:53:54 05:56 10.12
654 WIBAUT ISABELLE   DA 55 00:54:00 05:56 10.10
655 CASTIAUX NOA   ED 3 00:54:03 05:57 10.09
656 PEETERS JORDAN   SE 181 00:54:03 05:57 10.09
657 CASTIAUX SÉBASTIEN   V1 169 00:54:03 05:57 10.09
658 GAILLY SOPHIE BAC A1 43 00:54:09 05:57 10.07
659 VOITURIER LAURENT BAC V1 170 00:54:10 05:58 10.07
660 MORTAIGNIE CYRIELLE TEAM RUNNING 46 DA 56 00:54:12 05:58 10.06
661 HAUBRUGE SÉBASTIEN   V1 171 00:54:13 05:58 10.06
662 LEBRUN MARC   V1 172 00:54:14 05:58 10.06
663 CLERX ISABELLE SPHO A3 4 00:54:15 05:58 10.05
664 BAUSIER PHILIPPE RUNNING FRIENDS V2 111 00:54:20 05:59 10.04
665 ABANDON OLIVIER ATHOIS DE CO... V1 173 00:54:20 05:59 10.04
666 LOUVIEAUX DAMIEN KAIN B V2 112 00:54:21 05:59 10.04
667 CABY BERNARD JCSA V3 47 00:54:21 05:59 10.04
668 LEERSNYDER JOEL VELAINES V4 14 00:54:28 06:00 10.01
669 RIVIERE ALINE PRFM DA 57 00:54:30 06:00 10.01
670 DE LANGHE BRUNO LES GENS D ERE V3 48 00:54:35 06:00 9.99
671 BARGIBANT PATRICK BAC V2 113 00:54:35 06:00 9.99
672 GEENENS LISE JC HERINNES DA 58 00:54:36 06:00 9.99
673 LEFEBVRE NORBERT VELAINES V2 114 00:54:36 06:00 9.99
674 MUSUMECI BRUNO JCSA V3 49 00:54:36 06:00 9.99
675 VAN DRIESSCHE RÉMY ZOE CLUB SE 182 00:54:40 06:01 9.98
676 VANDENHOVEN BENJAMIN TRI ATH SE 183 00:54:52 06:02 9.94
677 DECLERCQ ANNE-SOPHIE BAC A1 44 00:54:54 06:02 9.93
678 SYLVART TAMARA   A1 45 00:54:54 06:02 9.93
679 HEREMANS PATRICK CHRYPAT V2 115 00:54:54 06:02 9.93
680 DELMAY CHRYSTELLE CHRYPAT A1 46 00:54:54 06:02 9.93
681 CLAEYS SAMUEL   V1 174 00:55:01 06:03 9.91
682 CHOISEZ NATHALIE LES GENS D ERE A1 47 00:55:02 06:03 9.91
683 HERTELEER CHRISTIAN   V4 15 00:55:08 06:04 9.89
684 DE KEYSER MARIE-JEANNE   A4 2 00:55:09 06:04 9.89
685 DACHY JEAN-PAUL KAIN B V3 50 00:55:13 06:04 9.88
686 MAILLY ROLAND JCSA V3 51 00:55:13 06:04 9.88
687 VANDERHAEGEN JACQUES B BETES DE C... V3 52 00:55:14 06:05 9.87
688 MICHIELS PHILIPPE VELAINES V3 53 00:55:18 06:05 9.86
689 HAMDOUN LAURA B BETES DE C... DA 59 00:55:20 06:05 9.86
690 BLANCQUART JUSTIN   SE 184 00:55:23 06:06 9.85
691 BRAQUENIER JACQUES B BETES DE C... V2 116 00:55:24 06:06 9.84
692 CASTELEYN LAURENCE   A2 21 00:55:32 06:07 9.82
693 FERVAILLE FABIENNE KAIN B A2 22 00:55:33 06:07 9.82
694 LEMOINE CHRISTELLE KAIN B A2 23 00:55:34 06:07 9.82
695 LEBAIN ALAIN VELAINES V3 54 00:55:38 06:07 9.80
696 VAN NEROM EDDY BAYERN MUNCHEN V2 117 00:55:38 06:07 9.80
697 VANSTEENBRUGGE DOMINIQUE JC HERINNES A2 24 00:55:39 06:07 9.80
698 MALATERRE GILLES NO MACADAM STAR V3 55 00:55:39 06:07 9.80
699 DEMITRI COSIMO TORTUES MESL... V3 56 00:55:41 06:08 9.79
700 DEGRYSE PIERRE   V3 57 00:55:52 06:09 9.76
701 FRIQUE MARIE-ANNE VELAINES A3 5 00:55:59 06:10 9.74
702 DOOLAEGHE OLIVIER   V2 118 00:56:07 06:10 9.72
703 LAGACHE BRUNO TIME TO RUN SE 185 00:56:08 06:11 9.72
704 VAN CEUNEBROECK ESTELLE LES CEUSSES ... DA 60 00:56:12 06:11 9.70
705 DELFOSSE ALEXANDRA   DA 61 00:56:12 06:11 9.70
706 GLORIEUX THIERRY VELAINES V2 119 00:56:12 06:11 9.70
707 PATRICK SEBASTIEN   SE 186 00:56:15 06:11 9.70
708 MASURE VIRGINIE RSCM DA 62 00:56:15 06:11 9.70
709 MARTIN AURELIE   DA 63 00:56:16 06:11 9.69
710 LECLERCQ PASCAL RUNNING FRIENDS V1 175 00:56:16 06:11 9.69
711 FONTAINE CHRISTELLE TEMPLEUVE A2 25 00:56:16 06:11 9.69
712 HANS CLÉMENTINE ADDM OGY DA 64 00:56:17 06:12 9.69
713 GAILLOT NICOLAS   SE 187 00:56:20 06:12 9.68
714 NICOLLE BRUNO   V2 120 00:56:24 06:12 9.67
715 LIENART AMANDINE MC RUNNING DA 65 00:56:32 06:13 9.65
716 MASURE MICHAËL   V1 176 00:56:41 06:14 9.62
717 DE MOERLOOSE JOHAN LEONIDAS V1 177 00:56:43 06:14 9.62
718 NEERDAELS GUIDO FARMERS CLUB V2 121 00:56:47 06:15 9.61
719 BELIN GUILLAUME   SE 188 00:56:49 06:15 9.60
720 LEMOINE SEVERINE COACH RUNNING A1 48 00:56:51 06:15 9.59
721 MENART CÉDRIC BAC V1 178 00:56:57 06:16 9.58
722 DEPELCHIN HÉLÈNE JCPMF VELAINES A1 49 00:56:59 06:16 9.57
723 CLERX ANNE PIPAIX A3 6 00:56:59 06:16 9.57
724 FRIQUET JEAN-NOËL PIPAIX V2 122 00:57:00 06:16 9.57
725 HOEDT NATACHA MMM A1 50 00:57:11 06:17 9.54
726 VERRUE FRANCIS BAC V4 16 00:57:18 06:18 9.52
727 TROP TAAAAAAAAARD 5   SE 189 00:57:22 06:19 9.51
728 MOURMANNE ARNAUD BOUCHERIE LE... SE 190 00:57:22 06:19 9.51
729 MARTINEZ GERARDO ANDRES TEAM SE 191 00:57:25 06:19 9.50
730 DUPONT CARINE   A2 26 00:57:29 06:19 9.49
731 DHAEYER ETIENNE   V2 123 00:57:30 06:20 9.49
732 DESCY FRANÇOIS AMIS DU JEUDI V3 58 00:57:36 06:20 9.47
733 BOUHON AMANDINE LES GENS D ERE DA 66 00:57:40 06:21 9.46
734 MAGNIER SOPHIE LES CEUSSES ... A1 51 00:57:49 06:22 9.43
735 D HONDT SANDRINE LES CEUSSES ... A1 52 00:57:50 06:22 9.43
736 DE RIDDER SASKIA TORTUES MESL... ED 4 00:58:00 06:23 9.40
737 FRANÇOIS JOSÉ VELAINES V3 59 00:58:02 06:23 9.40
738 VERDY ROMAIN RUN 4 FUN SE 192 00:58:03 06:23 9.40
739 BETERMIEZ MAGUY VELAINES A2 27 00:58:05 06:23 9.39
740 BAUGNIES VALERIE TORTUES MESL... A1 53 00:58:07 06:24 9.38
741 DELCOURTE COLETTE RUN 4 FUN A2 28 00:58:07 06:24 9.38
742 BASILICO PATRICIA LES ECLATES A1 54 00:58:08 06:24 9.38
743 COSSEMENT CAROLINE POPUELLES DR... A1 55 00:58:11 06:24 9.37
744 DALLEMAGNE BERRIOS MICHEL RUN 4 FUN V3 60 00:58:18 06:25 9.36
745 DEBERDT DANY MMM V4 17 00:58:24 06:25 9.34
746 MARQUEZ ANDRES ANDRES TEAM V2 124 00:58:31 06:26 9.32
747 DEWATTINES FABRICE MC SONORISATION V1 179 00:58:38 06:27 9.30
748 HURIAU CÉDRIC ETC V1 180 00:58:38 06:27 9.30
749 LEMAN INGE RUN 4 FUN A1 56 00:58:42 06:27 9.29
750 DESCORNEZ RÉGINE BAC A2 29 00:58:50 06:28 9.27
751 LIBBRECHT SABINE ACBB A1 57 00:59:08 06:30 9.22
752 PENNEQUIN SACHA RUSTA SE 193 00:59:09 06:30 9.22
753 ESCALIER CAMILLE   DA 67 00:59:10 06:31 9.22
754 DELCAMBE MURIELLE VELAINES A2 30 00:59:15 06:31 9.21
755 RIVIÈRE ESTELLE VELAINES DA 68 00:59:26 06:32 9.18
756 FRÉDÉRIC MARIE-CHANTAL VELAINES A2 31 00:59:38 06:34 9.15
757 MARLIER ALAIN COACH RUNNING V2 125 00:59:56 06:36 9.10
758 SIMON OPHÉLIE L'AS DE LA T... DA 69 01:00:03 06:36 9.08
759 LESOIL HARMONY ET CHIEVRES DA 70 01:00:08 06:37 9.07
760 BAELE LUDIVINE   DA 71 01:00:09 06:37 9.07
761 CARPENTIER LORRY   DA 72 01:00:09 06:37 9.07
762 DUHEZ CÉLINE VELAINES DA 73 01:00:17 06:38 9.05
763 LELERCQ BETTY RUN 4 FUN A1 58 01:00:36 06:40 9.00
764 VAN HOUTTE NICOLAS RUN 4 FUN V1 181 01:00:37 06:40 9.00
765 CNUDDE SOPHIE   DA 74 01:00:47 06:41 8.97
766 GUILLUY VÉRONIQUE VELAINES A2 32 01:00:51 06:42 8.96
767 BRUNIN MARIE-LINE ADDM OGY A2 33 01:00:57 06:42 8.95
768 DUQUESNE VICKY   A1 59 01:01:11 06:44 8.91
769 FOSTROY MARIE-CHRISTIANE PRFM A3 7 01:01:12 06:44 8.91
770 MALAISE BERNADETTE VELAINES A2 34 01:01:22 06:45 8.89
771 MAIRIE PHILIPPE VELAINES V2 126 01:01:26 06:45 8.88
772 MEYS KEVIN RUNNING FRIENDS SE 194 01:01:29 06:46 8.87
773 MEYS PASCAL RUNNING FRIENDS V2 127 01:01:30 06:46 8.87
774 HENNAUT LOELIA   DA 75 01:01:34 06:46 8.86
775 AERTS THOMAS   SE 195 01:01:39 06:47 8.85
776 DELHAYE CARL JC HERINNES V3 61 01:02:04 06:50 8.79
777 SECLÈVE ARLETTE VELAINES A3 8 01:02:06 06:50 8.78
778 WINDELS ARTHUR VELAINES V4 18 01:02:12 06:51 8.77
779 DE CONINCK HUBERT CAP TEAM V2 128 01:02:52 06:55 8.68
780 CARLIER PHILIPPE   V1 182 01:03:01 06:56 8.65
781 VERCAIGNE MARTINE SPHO A2 35 01:03:08 06:57 8.64
782 BOONAERT HILAIRE JCSA V4 19 01:03:10 06:57 8.63
783 BATAILLE DAMIEN   V1 183 01:03:24 06:58 8.60
784 DELBECKE JEAN-PIERRE PECQ V2 129 01:03:24 06:58 8.60
785 DUTOIT ISABELLE   A1 60 01:03:36 07:00 8.58
786 COCHEZ JEAN-ALBERT KAIN B V3 62 01:03:40 07:00 8.57
787 LEMAIRE MARIO   V3 63 01:03:41 07:00 8.56
788 GRAVELINE JEANNICK L'AS DE LA T... A2 36 01:03:52 07:02 8.54
789 COUDYZER MICHEL KAIN B V3 64 01:03:56 07:02 8.53
790 DENYS MYRIAM LES CEUSSES ... A1 61 01:03:59 07:02 8.52
791 MARQUANT THIERRY JC HERINNES V2 130 01:04:05 07:03 8.51
792 VANSAINGELE LUC SPHO V3 65 01:04:14 07:04 8.49
793 THIMUS BAUDOUIN PIPAIX V3 66 01:04:40 07:07 8.43
794 SCHUERS NICOLAS   V2 131 01:04:47 07:08 8.42
795 GRAF OLIVIER   V1 184 01:04:48 07:08 8.42
796 DE NÈVE CHANTAL AC ST SAUVEU... A2 37 01:04:48 07:08 8.42
797 KIRITCHOUK HÉLÈNE ATHOIS DE CO... A2 38 01:05:08 07:10 8.37
798 WAGEMANS KOEN   SE 196 01:05:11 07:10 8.37
799 GOURANNA MARIE-FABIOLA VELAINES A1 62 01:05:28 07:12 8.33
800 DEBAISIEUX FABIENNE JCPMF ESTAIM... A2 39 01:06:54 07:22 8.15
801 NEF MARC AMIS DU JEUDI V4 20 01:06:56 07:22 8.15
802 MATHYS ANTOINE JC DE PINTE V4 21 01:07:14 07:24 8.11
803 CHEVAL MÉLANIE   A1 63 01:07:47 07:27 8.05
804 MESSIAEN MONICA BAC DA 76 01:08:09 07:30 8.00
805 PELTIER VALENTINE   DA 77 01:08:15 07:30 7.99
806 VILLEE ROMAIN   SE 197 01:08:21 07:31 7.98
807 VILLE GUILLAUME   SE 198 01:08:22 07:31 7.98
808 VILLÉE VINCENT JCSA V2 132 01:08:22 07:31 7.98
809 BOULÉ SÉVERINE   A1 64 01:09:04 07:36 7.90
810 CLYMANS STEPHANE JCPMF LESSINES V1 185 01:10:13 07:43 7.77
811 ALLARD STEPHANE TIME TO RUN V3 67 01:10:14 07:44 7.77
812 JUSTE PASCALINE SPHO A3 9 01:10:26 07:45 7.74
813 BERNUS POL-ANDRÉ KAIN B V3 68 01:10:37 07:46 7.72
814 HACHA FRANÇOIS CNDK V2 133 01:12:25 07:58 7.53